createdAt,value
2022-09-23T00:01:27.422Z,9.63
2022-09-23T00:04:00.493Z,10.70
2022-09-23T00:06:33.028Z,10.98
2022-09-23T00:09:05.970Z,10.35
2022-09-23T00:11:38.768Z,10.52
2022-09-23T00:14:11.702Z,9.82
2022-09-23T00:16:44.253Z,9.68
2022-09-23T00:19:17.003Z,8.80
2022-09-23T00:21:49.487Z,10.48
2022-09-23T00:24:22.675Z,10.98
2022-09-23T00:26:55.219Z,11.45
2022-09-23T00:29:27.948Z,11.18
2022-09-23T00:32:00.463Z,10.13
2022-09-23T00:34:34.279Z,10.18
2022-09-23T00:37:06.866Z,9.65
2022-09-23T00:39:39.847Z,10.88
2022-09-23T00:42:17.774Z,9.82
2022-09-23T00:44:56.545Z,10.02
2022-09-23T00:47:58.018Z,9.10
2022-09-23T00:50:40.074Z,8.23
2022-09-23T00:53:16.639Z,8.50
2022-09-23T00:56:00.371Z,8.20
2022-09-23T00:58:36.194Z,8.02
2022-09-23T01:01:09.404Z,9.20
2022-09-23T01:03:44.683Z,8.27
2022-09-23T01:06:17.534Z,7.70
2022-09-23T01:08:50.299Z,8.25
2022-09-23T01:11:47.505Z,7.22
2022-09-23T01:14:28.783Z,7.93
2022-09-23T01:17:09.408Z,7.20
2022-09-23T01:20:04.859Z,6.95
2022-09-23T01:23:08.918Z,7.93
2022-09-23T01:25:44.246Z,8.88
2022-09-23T01:29:14.474Z,8.07
2022-09-23T01:31:55.735Z,8.23
2022-09-23T01:34:34.362Z,8.85
2022-09-23T01:37:18.642Z,8.40
2022-09-23T01:39:57.497Z,8.82
2022-09-23T01:42:47.559Z,8.82
2022-09-23T01:45:26.994Z,9.57
2022-09-23T01:48:14.063Z,9.60
2022-09-23T01:51:05.062Z,8.65
2022-09-23T01:53:42.375Z,9.20
2022-09-23T01:56:39.238Z,8.50
2022-09-23T01:59:14.938Z,8.65
2022-09-23T02:02:01.206Z,9.70
2022-09-23T02:04:45.791Z,9.90
2022-09-23T02:07:23.929Z,10.48
2022-09-23T02:10:19.270Z,10.20
2022-09-23T02:12:58.016Z,8.82
2022-09-23T02:15:40.975Z,9.27
2022-09-23T02:18:19.732Z,8.98
2022-09-23T02:21:00.467Z,8.45
2022-09-23T02:24:00.038Z,9.27
2022-09-23T02:26:53.483Z,8.73
2022-09-23T02:30:02.339Z,8.63
2022-09-23T02:32:41.442Z,9.18
2022-09-23T02:35:49.046Z,9.75
2022-09-23T02:38:35.587Z,9.32
2022-09-23T02:41:20.538Z,9.23
2022-09-23T02:44:11.239Z,8.00
2022-09-23T02:46:44.652Z,8.35
2022-09-23T02:49:29.827Z,9.25
2022-09-23T02:52:04.787Z,7.60
2022-09-23T02:54:37.789Z,8.40
2022-09-23T02:57:10.737Z,8.80
2022-09-23T02:59:43.673Z,8.13
2022-09-23T03:03:05.383Z,8.93
2022-09-23T03:05:46.086Z,8.98
2022-09-23T03:08:32.446Z,8.50
2022-09-23T03:11:13.568Z,9.65
2022-09-23T03:14:30.877Z,7.85
2022-09-23T03:17:04.681Z,8.75
2022-09-23T03:19:54.046Z,8.60
2022-09-23T03:22:47.093Z,9.75
2022-09-23T03:25:24.048Z,9.63
2022-09-23T03:27:59.117Z,8.27
2022-09-23T03:30:35.655Z,9.23
2022-09-23T03:33:12.531Z,9.52
2022-09-23T03:36:19.259Z,9.13
2022-09-23T03:38:57.845Z,9.00
2022-09-23T03:41:43.387Z,9.15
2022-09-23T03:44:17.599Z,8.43
2022-09-23T03:46:50.337Z,8.43
2022-09-23T03:49:33.466Z,9.15
2022-09-23T03:52:06.881Z,8.35
2022-09-23T03:54:39.482Z,8.82
2022-09-23T03:57:13.403Z,9.52
2022-09-23T03:59:45.989Z,7.80
2022-09-23T04:02:20.324Z,8.52
2022-09-23T04:04:52.893Z,8.82
2022-09-23T04:07:25.713Z,9.20
2022-09-23T04:09:59.938Z,8.88
2022-09-23T04:12:32.834Z,8.63
2022-09-23T04:15:05.927Z,9.77
2022-09-23T04:17:38.736Z,9.30
2022-09-23T04:20:11.288Z,8.93
2022-09-23T04:22:44.017Z,8.45
2022-09-23T04:25:16.658Z,9.48
2022-09-23T04:27:49.401Z,8.10
2022-09-23T04:30:21.929Z,9.40
2022-09-23T04:32:54.880Z,8.85
2022-09-23T04:35:27.458Z,8.60
2022-09-23T04:38:00.225Z,10.32
2022-09-23T04:40:33.157Z,8.82
2022-09-23T04:43:07.182Z,8.95
2022-09-23T04:45:43.298Z,9.10
2022-09-23T04:48:16.234Z,9.73
2022-09-23T04:50:48.953Z,9.93
2022-09-23T04:53:21.889Z,10.02
2022-09-23T04:55:55.197Z,9.85
2022-09-23T04:58:29.170Z,9.18
2022-09-23T05:01:10.364Z,10.38
2022-09-23T05:03:44.703Z,10.15
2022-09-23T05:06:17.785Z,9.30
2022-09-23T05:08:52.952Z,9.10
2022-09-23T05:11:26.773Z,10.13
2022-09-23T05:13:59.857Z,9.43
2022-09-23T05:16:32.497Z,10.82
2022-09-23T05:19:05.691Z,10.13
2022-09-23T05:21:38.603Z,11.07
2022-09-23T05:24:12.327Z,10.73
2022-09-23T05:26:44.878Z,10.05
2022-09-23T05:29:18.145Z,10.20
2022-09-23T05:31:50.917Z,10.48
2022-09-23T05:34:24.768Z,11.45
2022-09-23T05:36:58.422Z,11.38
2022-09-23T05:39:31.241Z,10.82
2022-09-23T05:42:04.111Z,11.13
2022-09-23T05:44:39.577Z,11.95
2022-09-23T05:47:12.096Z,11.27
2022-09-23T05:49:59.214Z,11.50
2022-09-23T05:52:34.876Z,9.73
2022-09-23T05:55:08.507Z,11.82
2022-09-23T05:57:41.088Z,11.45
2022-09-23T06:00:14.480Z,12.57
2022-09-23T06:02:48.879Z,14.00
2022-09-23T06:05:21.796Z,13.00
2022-09-23T06:07:56.874Z,14.00
2022-09-23T06:10:29.651Z,14.55
2022-09-23T06:13:02.127Z,14.82
2022-09-23T06:15:41.684Z,13.27
2022-09-23T06:18:14.290Z,13.85
2022-09-23T06:20:48.095Z,15.70
2022-09-23T06:23:24.087Z,13.25
2022-09-23T06:26:08.136Z,13.80
2022-09-23T06:28:42.980Z,13.15
2022-09-23T06:31:17.280Z,13.98
2022-09-23T06:33:52.505Z,14.93
2022-09-23T06:36:44.911Z,17.05
2022-09-23T06:39:18.287Z,16.02
2022-09-23T06:41:51.039Z,16.98
2022-09-23T06:44:23.772Z,11.30
2022-09-23T06:46:56.659Z,15.13
2022-09-23T06:49:29.243Z,13.88
2022-09-23T06:52:02.323Z,14.48
2022-09-23T06:54:34.878Z,14.27
2022-09-23T06:57:07.591Z,13.73
2022-09-23T06:59:41.842Z,8.20
2022-09-23T07:02:14.647Z,11.18
2022-09-23T07:04:47.319Z,10.52
2022-09-23T07:07:20.106Z,13.07
2022-09-23T07:09:53.682Z,11.95
2022-09-23T07:12:26.656Z,10.18
2022-09-23T07:14:59.161Z,11.05
2022-09-23T07:17:32.007Z,10.38
2022-09-23T07:20:04.971Z,7.60
2022-09-23T07:22:38.300Z,9.63
2022-09-23T07:25:12.268Z,9.73
2022-09-23T07:27:47.413Z,10.25
2022-09-23T07:30:25.149Z,11.68
2022-09-23T07:32:58.357Z,11.40
2022-09-23T07:35:31.250Z,14.13
2022-09-23T07:38:04.010Z,16.30
2022-09-23T07:40:39.219Z,16.92
2022-09-23T07:43:11.943Z,8.57
2022-09-23T07:45:45.513Z,9.10
2022-09-23T07:48:18.276Z,13.50
2022-09-23T07:50:50.836Z,19.55
2022-09-23T07:53:24.140Z,19.38
2022-09-23T07:55:57.124Z,17.40
2022-09-23T07:58:30.034Z,17.70
2022-09-23T08:01:05.220Z,16.20
2022-09-23T08:03:39.281Z,13.90
2022-09-23T08:06:13.514Z,10.30
2022-09-23T08:08:51.151Z,10.75
2022-09-23T08:11:26.708Z,9.97
2022-09-23T08:13:59.562Z,6.00
2022-09-23T08:16:32.956Z,3.58
2022-09-23T08:19:06.522Z,3.53
2022-09-23T08:21:40.488Z,5.97
2022-09-23T08:24:18.938Z,5.50
2022-09-23T08:26:55.647Z,4.88
2022-09-23T08:29:28.483Z,4.55
2022-09-23T08:32:01.223Z,2.50
2022-09-23T08:34:35.835Z,2.70
2022-09-23T08:37:11.432Z,2.50
2022-09-23T08:39:44.706Z,2.35
2022-09-23T08:42:28.282Z,2.83
2022-09-23T08:45:04.807Z,2.35
2022-09-23T08:48:24.602Z,1.92
2022-09-23T08:51:05.383Z,1.80
2022-09-23T08:53:38.810Z,1.58
2022-09-23T08:56:17.414Z,1.58
2022-09-23T08:59:00.401Z,1.70
2022-09-23T09:01:44.544Z,1.90
2022-09-23T09:04:19.210Z,1.98
2022-09-23T09:07:35.261Z,1.33
2022-09-23T09:10:08.494Z,1.08
2022-09-23T09:12:47.953Z,1.20
2022-09-23T09:15:27.389Z,1.20
2022-09-23T09:18:04.430Z,1.20
2022-09-23T09:20:51.623Z,0.93
2022-09-23T09:23:45.323Z,0.95
2022-09-23T09:26:32.370Z,0.57
2022-09-23T09:29:36.410Z,0.98
2022-09-23T09:32:37.834Z,0.70
2022-09-23T09:35:33.238Z,0.77
2022-09-23T09:38:05.924Z,0.80
2022-09-23T09:40:46.252Z,1.10
2022-09-23T09:46:25.985Z,1.05
2022-09-23T09:49:11.510Z,0.95
2022-09-23T09:51:44.300Z,0.50
2022-09-23T09:54:23.231Z,0.70
2022-09-23T09:56:56.072Z,0.82
2022-09-23T09:59:29.401Z,1.33
2022-09-23T10:02:25.951Z,1.10
2022-09-23T10:05:05.877Z,0.95
2022-09-23T10:10:33.646Z,0.75
2022-09-23T10:13:16.234Z,0.75
2022-09-23T10:15:48.795Z,0.40
2022-09-23T10:18:38.167Z,0.50
2022-09-23T10:21:26.941Z,0.40
2022-09-23T10:24:03.112Z,0.65
2022-09-23T10:26:55.050Z,0.70
2022-09-23T10:29:37.494Z,0.80
2022-09-23T10:32:28.074Z,0.70
2022-09-23T10:35:15.675Z,0.70
2022-09-23T10:37:57.979Z,0.70
2022-09-23T10:41:01.888Z,0.98
2022-09-23T10:44:11.119Z,0.65
2022-09-23T10:46:50.647Z,0.50
2022-09-23T10:49:43.954Z,0.70
2022-09-23T10:52:36.370Z,0.50
2022-09-23T10:55:09.062Z,0.85
2022-09-23T10:57:53.900Z,0.85
2022-09-23T11:00:57.367Z,0.90
2022-09-23T11:04:12.485Z,0.70
2022-09-23T11:07:14.615Z,0.68
2022-09-23T11:10:28.867Z,0.80
2022-09-23T11:13:29.676Z,0.75
2022-09-23T11:16:21.563Z,0.80
2022-09-23T11:19:23.271Z,0.93
2022-09-23T11:22:38.048Z,0.70
2022-09-23T11:25:31.936Z,0.55
2022-09-23T11:28:17.888Z,0.57
2022-09-23T11:31:12.609Z,0.63
2022-09-23T11:33:53.756Z,0.90
2022-09-23T11:36:37.914Z,0.60
2022-09-23T11:39:28.074Z,0.90
2022-09-23T11:42:02.474Z,1.10
2022-09-23T11:44:44.555Z,0.95
2022-09-23T11:47:33.521Z,1.00
2022-09-23T11:50:29.672Z,0.77
2022-09-23T11:53:09.715Z,0.95
2022-09-23T11:55:58.023Z,0.82
2022-09-23T11:58:50.017Z,0.73
2022-09-23T12:01:56.015Z,0.90
2022-09-23T12:04:29.176Z,0.82
2022-09-23T12:07:56.757Z,0.85
2022-09-23T12:10:50.418Z,0.90
2022-09-23T12:13:49.646Z,0.60
2022-09-23T12:16:53.796Z,0.50
2022-09-23T12:27:39.567Z,0.80
2022-09-23T12:33:52.240Z,0.50
2022-09-23T12:36:34.826Z,0.50
2022-09-23T12:39:29.666Z,0.60
2022-09-23T12:42:05.314Z,0.80
2022-09-23T12:44:41.450Z,0.60
2022-09-23T12:47:25.576Z,0.65
2022-09-23T12:49:58.351Z,1.05
2022-09-23T12:52:33.750Z,1.42
2022-09-23T12:55:22.136Z,1.00
2022-09-23T12:57:55.590Z,0.93
2022-09-23T13:00:32.150Z,1.00
2022-09-23T13:03:31.404Z,0.98
2022-09-23T13:06:27.079Z,0.80
2022-09-23T13:09:00.971Z,1.05
2022-09-23T13:11:33.720Z,1.08
2022-09-23T13:14:07.283Z,0.80
2022-09-23T13:16:44.465Z,1.00
2022-09-23T13:19:26.706Z,1.42
2022-09-23T13:22:06.841Z,1.20
2022-09-23T13:24:43.074Z,1.52
2022-09-23T13:27:30.314Z,0.75
2022-09-23T13:30:32.553Z,0.90
2022-09-23T13:37:04.803Z,0.90
2022-09-23T13:40:27.260Z,0.88
2022-09-23T13:43:04.591Z,0.70
2022-09-23T13:45:44.903Z,1.00
2022-09-23T13:51:43.104Z,0.80
2022-09-23T13:54:50.443Z,0.70
2022-09-23T13:57:34.878Z,1.00
2022-09-23T14:00:21.589Z,0.93
2022-09-23T14:02:55.920Z,1.05
2022-09-23T14:05:35.448Z,0.77
2022-09-23T14:08:09.611Z,0.70
2022-09-23T14:12:32.694Z,0.85
2022-09-23T14:15:07.176Z,0.80
2022-09-23T14:17:39.883Z,0.68
2022-09-23T14:20:17.678Z,0.80
2022-09-23T14:23:05.061Z,0.80
2022-09-23T14:25:39.051Z,0.70
2022-09-23T14:28:19.932Z,0.70
2022-09-23T14:31:00.365Z,1.00
2022-09-23T14:33:34.200Z,0.68
2022-09-23T14:36:34.158Z,0.85
2022-09-23T14:39:10.153Z,0.77
2022-09-23T14:41:45.590Z,0.70
2022-09-23T14:44:30.824Z,0.65
2022-09-23T14:47:03.618Z,0.80
2022-09-23T14:49:36.227Z,0.77
2022-09-23T14:52:10.793Z,0.70
2022-09-23T14:54:46.901Z,1.42
2022-09-23T14:57:22.837Z,0.82
2022-09-23T15:00:16.056Z,1.10
2022-09-23T15:03:13.261Z,0.90
2022-09-23T15:05:57.954Z,0.90
2022-09-23T15:08:33.123Z,0.65
2022-09-23T15:11:08.298Z,1.40
2022-09-23T15:13:45.638Z,0.73
2022-09-23T15:16:27.855Z,0.60
2022-09-23T15:19:04.123Z,3.10
2022-09-23T15:21:42.242Z,1.63
2022-09-23T15:24:36.832Z,1.73
2022-09-23T15:27:28.742Z,1.23
2022-09-23T15:30:19.257Z,1.65
2022-09-23T15:32:51.907Z,1.15
2022-09-23T15:35:26.788Z,0.90
2022-09-23T15:38:01.838Z,1.10
2022-09-23T15:40:37.087Z,2.58
2022-09-23T15:43:21.986Z,1.90
2022-09-23T15:46:07.368Z,1.20
2022-09-23T15:49:02.930Z,1.52
2022-09-23T15:51:37.365Z,2.00
2022-09-23T15:54:12.591Z,1.77
2022-09-23T15:56:45.793Z,1.98
2022-09-23T15:59:19.279Z,1.63
2022-09-23T16:01:53.275Z,1.52
2022-09-23T16:04:26.239Z,1.70
2022-09-23T16:06:59.168Z,1.45
2022-09-23T16:09:31.754Z,1.40
2022-09-23T16:12:04.777Z,1.60
2022-09-23T16:14:37.480Z,2.15
2022-09-23T16:17:13.997Z,2.10
2022-09-23T16:19:46.528Z,1.63
2022-09-23T16:22:19.312Z,2.17
2022-09-23T16:24:51.836Z,2.35
2022-09-23T16:27:26.064Z,2.03
2022-09-23T16:29:59.042Z,2.42
2022-09-23T16:32:31.794Z,1.90
2022-09-23T16:35:06.041Z,2.90
2022-09-23T16:37:38.834Z,2.67
2022-09-23T16:40:11.532Z,2.78
2022-09-23T16:42:46.519Z,2.63
2022-09-23T16:45:23.003Z,2.40
2022-09-23T16:48:03.958Z,2.22
2022-09-23T16:50:36.563Z,2.08
2022-09-23T16:53:09.318Z,3.28
2022-09-23T16:55:41.842Z,2.67
2022-09-23T16:58:14.987Z,3.25
2022-09-23T17:01:06.244Z,3.75
2022-09-23T17:03:41.922Z,5.13
2022-09-23T17:06:15.842Z,4.93
2022-09-23T17:08:49.201Z,4.45
2022-09-23T17:11:22.787Z,3.60
2022-09-23T17:13:55.765Z,4.13
2022-09-23T17:16:31.088Z,3.53
2022-09-23T17:19:08.558Z,4.72
2022-09-23T17:21:41.127Z,5.15
2022-09-23T17:24:13.860Z,4.57
2022-09-23T17:26:52.037Z,4.20
2022-09-23T17:29:26.950Z,3.78
2022-09-23T17:31:59.570Z,3.60
2022-09-23T17:34:33.460Z,3.70
2022-09-23T17:37:06.096Z,4.93
2022-09-23T17:39:38.888Z,5.43
2022-09-23T17:42:11.450Z,5.50
2022-09-23T17:44:44.245Z,9.60
2022-09-23T17:47:16.956Z,7.13
2022-09-23T17:49:50.027Z,7.18
2022-09-23T17:52:22.509Z,5.65
2022-09-23T17:54:55.234Z,6.15
2022-09-23T17:57:31.880Z,6.10
2022-09-23T18:00:05.055Z,7.07
2022-09-23T18:02:37.698Z,6.93
2022-09-23T18:05:10.514Z,7.20
2022-09-23T18:07:42.967Z,9.10
2022-09-23T18:10:15.764Z,8.32
2022-09-23T18:12:48.560Z,7.53
2022-09-23T18:15:21.269Z,6.55
2022-09-23T18:17:53.792Z,9.02
2022-09-23T18:20:26.508Z,7.78
2022-09-23T18:22:59.479Z,8.40
2022-09-23T18:25:40.917Z,8.60
2022-09-23T18:28:13.442Z,6.45
2022-09-23T18:30:56.402Z,6.57
2022-09-23T18:33:28.898Z,7.00
2022-09-23T18:36:02.109Z,5.90
2022-09-23T18:38:34.933Z,6.28
2022-09-23T18:41:08.137Z,6.70
2022-09-23T18:43:46.303Z,8.60
2022-09-23T18:46:25.939Z,8.68
2022-09-23T18:49:17.752Z,8.30
2022-09-23T18:51:55.707Z,7.72
2022-09-23T18:54:30.485Z,7.88
2022-09-23T18:57:03.266Z,7.07
2022-09-23T18:59:35.771Z,7.40
2022-09-23T19:02:09.265Z,7.60
2022-09-23T19:04:41.934Z,8.13
2022-09-23T19:07:16.022Z,8.20
2022-09-23T19:09:48.722Z,8.02
2022-09-23T19:12:22.642Z,7.15
2022-09-23T19:14:55.708Z,8.38
2022-09-23T19:17:29.411Z,8.13
2022-09-23T19:20:34.705Z,8.80
2022-09-23T19:23:11.431Z,7.88
2022-09-23T19:25:46.443Z,8.38
2022-09-23T19:28:19.335Z,7.10
2022-09-23T19:30:52.226Z,7.88
2022-09-23T19:33:24.947Z,8.82
2022-09-23T19:35:58.469Z,7.97
2022-09-23T19:38:31.193Z,7.32
2022-09-23T19:41:09.215Z,7.88
2022-09-23T19:43:41.969Z,7.28
2022-09-23T19:46:14.825Z,7.25
2022-09-23T19:48:48.561Z,8.05
2022-09-23T19:51:21.183Z,8.93
2022-09-23T19:53:54.011Z,8.77
2022-09-23T19:56:26.937Z,7.75
2022-09-23T19:59:02.949Z,7.72
2022-09-23T20:01:36.380Z,8.27
2022-09-23T20:04:09.365Z,8.15
2022-09-23T20:06:42.038Z,8.75
2022-09-23T20:09:17.013Z,8.13
2022-09-23T20:11:50.200Z,8.10
2022-09-23T20:14:24.415Z,9.13
2022-09-23T20:16:57.992Z,9.32
2022-09-23T20:19:30.987Z,9.43
2022-09-23T20:22:22.305Z,8.75
2022-09-23T20:24:56.342Z,10.30
2022-09-23T20:27:33.452Z,10.27
2022-09-23T20:30:10.102Z,8.38
2022-09-23T20:32:44.734Z,9.23
2022-09-23T20:35:17.730Z,9.13
2022-09-23T20:37:50.950Z,9.63
2022-09-23T20:40:23.704Z,9.88
2022-09-23T20:42:56.486Z,8.45
2022-09-23T20:45:29.247Z,7.80
2022-09-23T20:48:03.374Z,8.50
2022-09-23T20:50:36.169Z,8.13
2022-09-23T20:53:09.144Z,7.88
2022-09-23T20:55:53.238Z,6.85
2022-09-23T20:58:27.867Z,6.97
2022-09-23T21:01:05.420Z,8.55
2022-09-23T21:03:40.509Z,7.60
2022-09-23T21:06:15.327Z,8.57
2022-09-23T21:08:47.971Z,8.50
2022-09-23T21:11:21.978Z,8.95
2022-09-23T21:13:54.751Z,8.52
2022-09-23T21:16:27.716Z,8.43
2022-09-23T21:19:03.323Z,9.13
2022-09-23T21:21:37.093Z,7.55
2022-09-23T21:24:43.791Z,6.63
2022-09-23T21:27:03.975Z,6.72
2022-09-23T21:29:36.501Z,7.50
2022-09-23T21:32:10.414Z,6.50
2022-09-23T21:34:42.981Z,7.20
2022-09-23T21:37:15.650Z,7.75
2022-09-23T21:40:08.252Z,8.35
2022-09-23T21:42:42.093Z,8.25
2022-09-23T21:45:14.639Z,7.80
2022-09-23T21:47:47.378Z,8.63
2022-09-23T21:50:20.529Z,8.88
2022-09-23T21:52:53.546Z,8.07
2022-09-23T21:55:26.093Z,7.97
2022-09-23T21:57:58.868Z,9.13
2022-09-23T22:00:31.491Z,8.85
2022-09-23T22:03:04.229Z,10.48
2022-09-23T22:05:43.589Z,8.20
2022-09-23T22:08:16.270Z,7.78
2022-09-23T22:10:48.790Z,7.90
2022-09-23T22:13:21.965Z,7.70
2022-09-23T22:15:54.626Z,7.60
2022-09-23T22:18:28.477Z,6.95
2022-09-23T22:21:01.039Z,8.15
2022-09-23T22:23:33.726Z,8.70
2022-09-23T22:26:06.204Z,8.75
2022-09-23T22:28:57.759Z,8.52
2022-09-23T22:31:48.975Z,7.85
2022-09-23T22:34:48.671Z,8.60
2022-09-23T22:37:26.316Z,7.20
2022-09-23T22:42:31.614Z,6.90
2022-09-23T22:45:05.949Z,6.93
2022-09-23T22:47:40.926Z,6.43
2022-09-23T22:50:14.770Z,6.53
2022-09-23T22:52:47.577Z,5.63
2022-09-23T22:55:20.350Z,5.80
2022-09-23T22:57:52.823Z,6.38
2022-09-23T23:00:26.934Z,6.30
2022-09-23T23:03:01.102Z,6.90
2022-09-23T23:05:33.922Z,6.60
2022-09-23T23:08:06.441Z,6.15
2022-09-23T23:10:39.398Z,6.20
2022-09-23T23:13:11.921Z,6.28
2022-09-23T23:15:44.672Z,5.78
2022-09-23T23:18:17.206Z,6.03
2022-09-23T23:20:50.184Z,5.78
2022-09-23T23:23:22.759Z,5.85
2022-09-23T23:25:55.518Z,5.28
2022-09-23T23:28:28.011Z,6.35
2022-09-23T23:31:08.410Z,6.20
2022-09-23T23:33:42.193Z,6.28
2022-09-23T23:36:17.556Z,6.13
2022-09-23T23:38:54.076Z,6.85
2022-09-23T23:41:27.270Z,6.38
2022-09-23T23:44:01.245Z,6.82
2022-09-23T23:46:37.343Z,6.72
2022-09-23T23:49:10.114Z,6.72
2022-09-23T23:51:42.800Z,5.90
2022-09-23T23:54:15.476Z,6.15
2022-09-23T23:56:48.372Z,6.55
2022-09-23T23:59:21.080Z,7.10
